createdAt,value
2019-04-29T00:01:24.123Z,87.17
2019-04-29T00:03:30.824Z,87.22
2019-04-29T00:05:37.617Z,87.26
2019-04-29T00:07:44.296Z,87.30
2019-04-29T00:09:51.190Z,87.42
2019-04-29T00:11:58.797Z,87.42
2019-04-29T00:14:05.695Z,87.40
2019-04-29T00:16:16.831Z,87.35
2019-04-29T00:18:34.343Z,87.37
2019-04-29T00:20:46.808Z,87.32
2019-04-29T00:22:53.586Z,87.24
2019-04-29T00:25:00.325Z,87.15
2019-04-29T00:27:08.574Z,87.20
2019-04-29T00:29:15.296Z,87.22
2019-04-29T00:31:22.032Z,87.16
2019-04-29T00:33:28.769Z,87.17
2019-04-29T00:35:35.854Z,87.18
2019-04-29T00:38:00.241Z,87.20
2019-04-29T00:40:18.481Z,87.18
2019-04-29T00:42:35.735Z,87.18
2019-04-29T00:44:42.415Z,87.09
2019-04-29T00:46:49.178Z,87.07
2019-04-29T00:48:55.870Z,87.01
2019-04-29T00:51:02.714Z,87.01
2019-04-29T00:53:09.595Z,86.88
2019-04-29T00:55:18.009Z,86.82
2019-04-29T00:57:24.772Z,86.74
2019-04-29T00:59:31.428Z,86.63
2019-04-29T01:01:38.206Z,86.53
2019-04-29T01:03:45.051Z,86.47
2019-04-29T01:05:51.879Z,86.47
2019-04-29T01:07:58.672Z,86.42
2019-04-29T01:10:07.023Z,86.52
2019-04-29T01:12:13.701Z,86.56
2019-04-29T01:14:20.411Z,86.54
2019-04-29T01:16:27.086Z,86.56
2019-04-29T01:18:33.854Z,86.53
2019-04-29T01:20:40.558Z,86.50
2019-04-29T01:22:48.327Z,86.41
2019-04-29T01:24:55.071Z,86.44
2019-04-29T01:27:03.410Z,86.49
2019-04-29T01:29:11.728Z,86.58
2019-04-29T01:31:20.063Z,86.66
2019-04-29T01:33:26.849Z,86.77
2019-04-29T01:35:33.515Z,86.81
2019-04-29T01:37:41.905Z,86.83
2019-04-29T01:39:56.105Z,86.86
2019-04-29T01:42:07.386Z,86.89
2019-04-29T01:44:15.727Z,86.86
2019-04-29T01:46:22.497Z,86.83
2019-04-29T01:48:29.168Z,86.79
2019-04-29T01:50:35.879Z,86.80
2019-04-29T01:52:42.565Z,86.80
2019-04-29T01:54:49.256Z,86.77
2019-04-29T01:56:56.120Z,86.78
2019-04-29T01:59:03.019Z,86.90
2019-04-29T02:01:09.758Z,86.91
2019-04-29T02:03:16.511Z,86.87
2019-04-29T02:05:23.800Z,86.81
2019-04-29T02:07:30.486Z,86.82
2019-04-29T02:09:38.801Z,86.76
2019-04-29T02:11:45.558Z,86.69
2019-04-29T02:13:52.465Z,86.69
2019-04-29T02:15:59.291Z,86.66
2019-04-29T02:18:06.066Z,86.61
2019-04-29T02:20:13.901Z,86.62
2019-04-29T02:22:34.080Z,86.55
2019-04-29T02:24:45.326Z,86.63
2019-04-29T02:26:52.148Z,86.62
2019-04-29T02:28:59.804Z,86.66
2019-04-29T02:31:24.420Z,86.71
2019-04-29T02:33:32.373Z,86.81
2019-04-29T02:35:39.125Z,86.82
2019-04-29T02:37:46.111Z,86.77
2019-04-29T02:39:57.145Z,86.73
2019-04-29T02:42:21.763Z,86.73
2019-04-29T02:44:28.539Z,86.65
2019-04-29T02:46:35.293Z,86.58
2019-04-29T02:48:41.979Z,86.66
2019-04-29T02:50:48.834Z,86.68
2019-04-29T02:52:55.602Z,86.81
2019-04-29T02:55:03.915Z,86.85
2019-04-29T02:57:12.254Z,86.79
2019-04-29T02:59:20.734Z,86.70
2019-04-29T03:01:35.049Z,86.72
2019-04-29T03:03:59.734Z,86.76
2019-04-29T03:06:06.477Z,86.66
2019-04-29T03:08:13.148Z,86.66
2019-04-29T03:10:19.967Z,86.66
2019-04-29T03:12:26.922Z,86.70
2019-04-29T03:14:34.083Z,86.73
2019-04-29T03:16:40.861Z,86.72
2019-04-29T03:18:49.207Z,86.71
2019-04-29T03:20:57.523Z,86.62
2019-04-29T03:23:08.931Z,86.48
2019-04-29T03:25:15.799Z,86.33
2019-04-29T03:27:22.479Z,86.26
2019-04-29T03:29:29.253Z,86.28
2019-04-29T03:31:39.374Z,86.25
2019-04-29T03:33:44.376Z,86.08
2019-04-29T03:35:51.109Z,85.98
2019-04-29T03:37:57.953Z,85.99
2019-04-29T03:40:06.092Z,86.04
2019-04-29T03:42:12.793Z,85.88
2019-04-29T03:44:19.591Z,85.87
2019-04-29T03:46:26.351Z,85.75
2019-04-29T03:48:33.041Z,85.58
2019-04-29T03:50:39.822Z,85.55
2019-04-29T03:52:47.509Z,85.60
2019-04-29T03:54:54.182Z,85.53
2019-04-29T03:57:00.922Z,85.49
2019-04-29T03:59:07.622Z,85.40
2019-04-29T04:01:21.889Z,85.28
2019-04-29T04:03:30.334Z,85.19
2019-04-29T04:05:44.787Z,84.92
2019-04-29T04:08:12.895Z,84.71
2019-04-29T04:10:19.855Z,84.40
2019-04-29T04:12:26.709Z,84.00
2019-04-29T04:14:33.852Z,83.38
2019-04-29T04:17:01.324Z,82.90
2019-04-29T04:19:09.739Z,82.47
2019-04-29T04:21:17.015Z,81.10
2019-04-29T04:23:24.410Z,79.98
2019-04-29T04:25:31.377Z,78.67
2019-04-29T04:27:40.964Z,77.69
2019-04-29T04:29:48.043Z,77.42
2019-04-29T04:31:54.779Z,76.97
2019-04-29T04:34:01.782Z,77.41
2019-04-29T04:36:11.360Z,77.32
2019-04-29T04:38:18.212Z,77.02
2019-04-29T04:40:36.676Z,76.82
2019-04-29T04:42:44.997Z,76.58
2019-04-29T04:44:51.773Z,77.21
2019-04-29T04:46:58.548Z,77.26
2019-04-29T04:49:05.314Z,76.65
2019-04-29T04:51:12.738Z,76.96
2019-04-29T04:53:19.539Z,76.45
2019-04-29T04:55:28.964Z,76.45
2019-04-29T04:57:36.186Z,76.67
2019-04-29T04:59:44.791Z,77.02
2019-04-29T05:01:51.741Z,77.00
2019-04-29T05:03:58.579Z,76.65
2019-04-29T05:06:06.734Z,75.81
2019-04-29T05:08:13.549Z,73.96
2019-04-29T05:10:20.495Z,71.14
2019-04-29T05:12:27.209Z,69.40
2019-04-29T05:14:33.875Z,67.79
2019-04-29T05:16:40.548Z,65.01
2019-04-29T05:18:48.803Z,61.82
2019-04-29T05:20:55.577Z,60.86
2019-04-29T05:23:02.337Z,59.28
2019-04-29T05:25:09.294Z,55.43
2019-04-29T05:27:15.949Z,52.91
2019-04-29T05:29:22.684Z,50.36
2019-04-29T05:31:29.446Z,48.48
2019-04-29T05:33:36.214Z,48.03
2019-04-29T05:35:43.845Z,49.73
2019-04-29T05:37:52.258Z,51.01
2019-04-29T05:39:59.024Z,50.56
2019-04-29T05:42:07.728Z,48.12
2019-04-29T05:44:13.877Z,46.34
2019-04-29T05:46:29.182Z,44.37
2019-04-29T05:48:35.926Z,43.10
2019-04-29T05:50:47.635Z,43.41
2019-04-29T05:53:03.547Z,45.30
2019-04-29T05:55:13.726Z,44.56
2019-04-29T05:57:20.484Z,42.29
2019-04-29T05:59:27.081Z,42.61
2019-04-29T06:01:33.821Z,43.17
2019-04-29T06:03:40.587Z,43.15
2019-04-29T06:05:47.263Z,40.29
2019-04-29T06:07:56.104Z,38.56
2019-04-29T06:10:02.340Z,37.33
2019-04-29T06:12:09.016Z,36.86
2019-04-29T06:14:15.951Z,36.66
2019-04-29T06:16:22.840Z,36.29
2019-04-29T06:18:29.518Z,35.46
2019-04-29T06:20:36.265Z,35.51
2019-04-29T06:22:43.513Z,35.31
2019-04-29T06:24:50.569Z,33.34
2019-04-29T06:26:57.330Z,32.03
2019-04-29T06:29:05.911Z,30.78
2019-04-29T06:31:12.360Z,29.09
2019-04-29T06:33:19.108Z,28.87
2019-04-29T06:35:26.817Z,29.11
2019-04-29T06:37:33.585Z,29.08
2019-04-29T06:39:40.263Z,30.64
2019-04-29T06:41:47.035Z,30.25
2019-04-29T06:43:56.078Z,31.35
2019-04-29T06:46:02.078Z,30.47
2019-04-29T06:48:09.776Z,30.13
2019-04-29T06:50:17.229Z,28.80
2019-04-29T06:52:24.835Z,28.74
2019-04-29T06:54:31.532Z,27.65
2019-04-29T06:56:38.215Z,26.74
2019-04-29T06:58:45.185Z,28.88
2019-04-29T07:00:55.772Z,29.12
2019-04-29T07:03:00.270Z,28.12
2019-04-29T07:05:08.546Z,27.46
2019-04-29T07:07:15.328Z,26.88
2019-04-29T07:09:23.206Z,31.08
2019-04-29T07:11:31.762Z,31.79
2019-04-29T07:13:38.280Z,30.12
2019-04-29T07:15:47.809Z,27.13
2019-04-29T07:17:54.368Z,27.86
2019-04-29T07:20:01.987Z,27.56
2019-04-29T07:22:10.536Z,26.42
2019-04-29T07:24:20.182Z,26.23
2019-04-29T07:26:25.607Z,26.92
2019-04-29T07:28:32.549Z,26.75
2019-04-29T07:30:59.976Z,26.98
2019-04-29T07:32:49.005Z,27.42
2019-04-29T07:34:55.935Z,26.29
2019-04-29T07:37:02.606Z,25.45
2019-04-29T07:39:09.310Z,25.54
2019-04-29T07:41:19.159Z,25.68
2019-04-29T07:43:23.544Z,24.74
2019-04-29T07:45:47.973Z,26.15
2019-04-29T07:47:57.183Z,27.52
2019-04-29T07:50:04.731Z,29.79
2019-04-29T07:52:14.587Z,33.08
2019-04-29T07:54:19.040Z,35.41
2019-04-29T07:56:25.652Z,38.26
2019-04-29T07:58:32.431Z,39.20
2019-04-29T08:00:39.105Z,41.28
2019-04-29T08:02:45.962Z,42.42
2019-04-29T08:04:52.655Z,43.78
2019-04-29T08:07:00.436Z,44.20
2019-04-29T08:09:09.711Z,43.82
2019-04-29T08:11:16.721Z,43.03
2019-04-29T08:13:26.077Z,42.88
2019-04-29T08:15:36.652Z,44.32
2019-04-29T08:17:41.158Z,45.34
2019-04-29T08:19:47.845Z,44.46
2019-04-29T08:21:54.504Z,45.18
2019-04-29T08:24:01.197Z,45.58
2019-04-29T08:26:07.871Z,45.52
2019-04-29T08:28:14.567Z,44.80
2019-04-29T08:30:21.347Z,44.26
2019-04-29T08:32:31.646Z,44.07
2019-04-29T08:34:36.394Z,44.18
2019-04-29T08:36:43.168Z,44.97
2019-04-29T08:38:49.840Z,45.54
2019-04-29T08:40:56.572Z,46.16
2019-04-29T08:43:08.719Z,47.50
2019-04-29T08:45:24.345Z,46.94
2019-04-29T08:47:32.669Z,47.30
2019-04-29T08:49:39.378Z,48.76
2019-04-29T08:51:46.043Z,48.71
2019-04-29T08:53:52.803Z,47.54
2019-04-29T08:55:59.493Z,47.17
2019-04-29T08:58:06.946Z,47.11
2019-04-29T09:00:15.216Z,47.18
2019-04-29T09:02:33.936Z,46.88
2019-04-29T09:04:33.377Z,46.96
2019-04-29T09:06:39.709Z,46.40
2019-04-29T09:08:54.659Z,45.80
2019-04-29T09:10:55.039Z,47.12
2019-04-29T09:13:01.735Z,47.20
2019-04-29T09:15:09.833Z,46.58
2019-04-29T09:17:20.470Z,45.80
2019-04-29T09:19:24.880Z,46.73
2019-04-29T09:21:31.655Z,47.26
2019-04-29T09:23:38.699Z,47.85
2019-04-29T09:25:47.011Z,48.07
2019-04-29T09:27:56.412Z,48.03
2019-04-29T09:30:03.527Z,47.51
2019-04-29T09:32:12.263Z,48.03
2019-04-29T09:34:19.882Z,47.70
2019-04-29T09:36:28.955Z,46.97
2019-04-29T09:38:36.801Z,46.82
2019-04-29T09:40:45.884Z,46.35
2019-04-29T09:43:15.811Z,45.93
2019-04-29T09:45:24.520Z,45.76
2019-04-29T09:47:32.009Z,45.24
2019-04-29T09:49:38.680Z,45.36
2019-04-29T09:51:45.358Z,45.09
2019-04-29T09:53:52.055Z,44.77
2019-04-29T09:55:59.024Z,45.37
2019-04-29T09:58:05.846Z,46.46
2019-04-29T10:00:16.381Z,46.42
2019-04-29T10:02:43.092Z,45.87
2019-04-29T10:04:56.300Z,46.03
2019-04-29T10:06:59.021Z,45.82
2019-04-29T10:09:09.536Z,45.76
2019-04-29T10:11:17.030Z,46.76
2019-04-29T10:13:23.821Z,45.90
2019-04-29T10:15:50.269Z,45.70
2019-04-29T10:17:58.587Z,45.56
2019-04-29T10:20:09.535Z,46.02
2019-04-29T10:22:16.230Z,46.21
2019-04-29T10:24:22.886Z,46.59
2019-04-29T10:26:29.584Z,46.49
2019-04-29T10:28:37.934Z,46.14
2019-04-29T10:30:44.872Z,46.36
2019-04-29T10:32:51.574Z,46.68
2019-04-29T10:34:58.235Z,46.06
2019-04-29T10:37:05.209Z,46.12
2019-04-29T10:39:22.636Z,46.15
2019-04-29T10:41:30.749Z,45.94
2019-04-29T10:43:55.715Z,45.59
2019-04-29T10:46:07.216Z,45.60
2019-04-29T10:48:18.317Z,44.98
2019-04-29T10:50:35.502Z,44.82
2019-04-29T10:52:43.569Z,45.14
2019-04-29T10:54:51.133Z,45.00
2019-04-29T10:56:58.784Z,44.93
2019-04-29T10:59:09.143Z,44.84
2019-04-29T11:01:31.911Z,44.94
2019-04-29T11:03:38.873Z,45.82
2019-04-29T11:06:00.015Z,45.56
2019-04-29T11:08:02.610Z,45.75
2019-04-29T11:10:24.859Z,45.57
2019-04-29T11:12:24.630Z,44.88
2019-04-29T11:14:33.081Z,43.69
2019-04-29T11:16:46.475Z,42.10
2019-04-29T11:18:50.552Z,42.27
2019-04-29T11:20:57.311Z,42.06
2019-04-29T11:23:09.801Z,42.20
2019-04-29T11:25:32.921Z,40.72
2019-04-29T11:27:50.308Z,41.07
2019-04-29T11:29:58.482Z,41.29
2019-04-29T11:32:08.331Z,40.77
2019-04-29T11:34:15.992Z,40.96
2019-04-29T11:36:24.821Z,41.13
2019-04-29T11:38:32.925Z,41.23
2019-04-29T11:40:43.605Z,41.11
2019-04-29T11:42:48.361Z,41.10
2019-04-29T11:44:57.081Z,41.65
2019-04-29T11:47:03.538Z,40.43
2019-04-29T11:49:11.936Z,40.26
2019-04-29T11:51:48.588Z,40.60
2019-04-29T11:53:43.966Z,41.27
2019-04-29T11:55:52.556Z,41.34
2019-04-29T11:58:06.914Z,41.89
2019-04-29T12:00:21.097Z,41.58
2019-04-29T12:02:44.701Z,41.63
2019-04-29T12:04:42.516Z,41.16
2019-04-29T12:06:51.247Z,40.55
2019-04-29T12:08:57.773Z,40.23
2019-04-29T12:11:07.155Z,40.31
2019-04-29T12:13:14.690Z,40.23
2019-04-29T12:15:23.008Z,40.97
2019-04-29T12:17:34.380Z,41.30
2019-04-29T12:19:43.777Z,41.45
2019-04-29T12:21:50.454Z,41.52
2019-04-29T12:23:58.955Z,41.06
2019-04-29T12:26:06.674Z,40.91
2019-04-29T12:28:19.336Z,41.17
2019-04-29T12:30:23.512Z,40.42
2019-04-29T12:32:48.138Z,41.28
2019-04-29T12:35:11.517Z,41.34
2019-04-29T12:37:19.861Z,41.80
2019-04-29T12:39:45.012Z,40.57
2019-04-29T12:41:54.329Z,40.37
2019-04-29T12:44:05.611Z,39.22
2019-04-29T12:46:23.168Z,38.95
2019-04-29T12:48:30.004Z,39.07
2019-04-29T12:50:36.701Z,39.60
2019-04-29T12:52:43.468Z,40.03
2019-04-29T12:54:50.232Z,39.87
2019-04-29T12:56:57.008Z,40.14
2019-04-29T12:59:04.008Z,40.11
2019-04-29T13:01:19.487Z,40.33
2019-04-29T13:03:38.955Z,40.74
2019-04-29T13:05:40.826Z,41.19
2019-04-29T13:07:51.804Z,42.78
2019-04-29T13:10:09.374Z,43.71
2019-04-29T13:12:19.731Z,44.18
2019-04-29T13:14:28.742Z,44.35
2019-04-29T13:16:55.766Z,43.99
2019-04-29T13:19:11.620Z,44.39
2019-04-29T13:21:12.921Z,44.71
2019-04-29T13:23:33.698Z,44.75
2019-04-29T13:25:29.496Z,45.40
2019-04-29T13:27:37.294Z,46.35
2019-04-29T13:29:44.044Z,46.72
2019-04-29T13:31:50.787Z,47.77
2019-04-29T13:34:08.913Z,49.47
2019-04-29T13:36:08.009Z,51.58
2019-04-29T13:38:14.901Z,52.85
2019-04-29T13:40:23.265Z,57.26
2019-04-29T13:42:30.033Z,60.90
2019-04-29T13:44:41.649Z,61.97
2019-04-29T13:47:02.005Z,64.96
2019-04-29T13:49:27.801Z,65.61
2019-04-29T13:51:37.140Z,67.43
2019-04-29T13:53:44.458Z,67.43
2019-04-29T13:56:10.055Z,66.11
2019-04-29T13:57:59.928Z,66.68
2019-04-29T14:00:10.917Z,67.32
2019-04-29T14:02:36.354Z,66.91
2019-04-29T14:04:47.827Z,66.58
2019-04-29T14:06:57.262Z,66.62
2019-04-29T14:09:03.868Z,67.28
2019-04-29T14:11:11.285Z,67.23
2019-04-29T14:13:20.927Z,68.65
2019-04-29T14:15:29.581Z,67.36
2019-04-29T14:18:53.713Z,64.66
2019-04-29T14:19:43.313Z,65.00
2019-04-29T14:21:50.073Z,65.25
2019-04-29T14:23:56.815Z,64.41
2019-04-29T14:26:03.557Z,63.89
2019-04-29T14:28:10.315Z,63.65
2019-04-29T14:30:21.387Z,63.30
2019-04-29T14:32:36.098Z,62.39
2019-04-29T14:34:39.752Z,62.78
2019-04-29T14:36:46.532Z,62.27
2019-04-29T14:38:53.295Z,62.62
2019-04-29T14:41:01.115Z,63.24
2019-04-29T14:43:31.033Z,64.06
2019-04-29T14:45:38.674Z,65.21
2019-04-29T14:47:52.741Z,64.98
2019-04-29T14:50:01.062Z,65.39
2019-04-29T14:52:23.934Z,65.01
2019-04-29T14:54:31.205Z,65.31
2019-04-29T14:56:37.864Z,65.05
2019-04-29T14:58:44.629Z,65.63
2019-04-29T15:00:51.304Z,64.96
2019-04-29T15:03:00.746Z,65.36
2019-04-29T15:05:12.200Z,64.51
2019-04-29T15:07:16.725Z,64.59
2019-04-29T15:09:23.585Z,65.29
2019-04-29T15:11:34.684Z,64.78
2019-04-29T15:13:43.132Z,64.36
2019-04-29T15:16:03.853Z,64.23
2019-04-29T15:18:15.243Z,63.91
2019-04-29T15:20:12.974Z,64.12
2019-04-29T15:22:24.461Z,64.07
2019-04-29T15:24:32.363Z,64.50
2019-04-29T15:26:38.286Z,64.22
2019-04-29T15:28:50.960Z,63.96
2019-04-29T15:30:57.725Z,63.83
2019-04-29T15:33:04.596Z,63.87
2019-04-29T15:35:11.354Z,63.97
2019-04-29T15:37:18.118Z,63.32
2019-04-29T15:39:25.831Z,63.26
2019-04-29T15:41:33.566Z,61.92
2019-04-29T15:43:47.426Z,62.18
2019-04-29T15:45:49.269Z,61.78
2019-04-29T15:47:56.393Z,61.67
2019-04-29T15:54:28.427Z,61.47
2019-04-29T15:56:38.697Z,62.57
2019-04-29T15:58:43.655Z,62.57
2019-04-29T16:00:50.342Z,62.58
2019-04-29T16:02:57.090Z,62.47
2019-04-29T16:05:09.115Z,62.36
2019-04-29T16:07:19.076Z,62.37
2019-04-29T16:09:51.657Z,62.94
2019-04-29T16:11:52.221Z,62.50
2019-04-29T16:14:08.750Z,62.77
2019-04-29T16:16:07.455Z,62.78
2019-04-29T16:18:14.820Z,62.43
2019-04-29T16:20:22.114Z,62.46
2019-04-29T16:22:28.868Z,62.51
2019-04-29T16:24:38.529Z,62.74
2019-04-29T16:26:44.892Z,63.07
2019-04-29T16:28:51.666Z,63.48
2019-04-29T16:30:58.599Z,63.40
2019-04-29T16:33:13.032Z,63.54
2019-04-29T16:35:17.877Z,63.37
2019-04-29T16:37:24.904Z,63.61
2019-04-29T16:39:30.165Z,63.75
2019-04-29T16:41:44.126Z,63.74
2019-04-29T16:43:52.615Z,63.72
2019-04-29T16:46:23.578Z,63.63
2019-04-29T16:48:27.834Z,63.55
2019-04-29T16:50:36.687Z,63.99
2019-04-29T16:52:44.554Z,64.09
2019-04-29T16:54:51.567Z,64.68
2019-04-29T16:56:58.384Z,64.23
2019-04-29T16:59:09.110Z,64.08
2019-04-29T17:01:13.909Z,64.41
2019-04-29T17:03:20.599Z,63.88
2019-04-29T17:05:27.721Z,64.16
2019-04-29T17:07:34.509Z,64.31
2019-04-29T17:09:42.927Z,64.19
2019-04-29T17:11:50.439Z,64.48
2019-04-29T17:13:58.077Z,64.96
2019-04-29T17:16:08.267Z,65.03
2019-04-29T17:18:15.023Z,65.15
2019-04-29T17:20:21.815Z,65.11
2019-04-29T17:22:28.707Z,65.64
2019-04-29T17:24:35.570Z,65.24
2019-04-29T17:26:46.855Z,65.69
2019-04-29T17:29:11.807Z,66.21
2019-04-29T17:31:17.392Z,66.25
2019-04-29T17:33:29.563Z,66.44
2019-04-29T17:35:37.458Z,66.77
2019-04-29T17:37:44.253Z,66.86
2019-04-29T17:39:51.029Z,66.80
2019-04-29T17:41:58.817Z,67.19
2019-04-29T17:44:07.437Z,67.18
2019-04-29T17:46:17.092Z,66.85
2019-04-29T17:48:28.379Z,67.32
2019-04-29T17:50:39.189Z,67.40
2019-04-29T17:52:45.092Z,67.18
2019-04-29T17:55:08.648Z,67.44
2019-04-29T17:57:36.427Z,68.09
2019-04-29T17:59:55.947Z,68.07
2019-04-29T18:02:22.121Z,68.33
2019-04-29T18:04:39.290Z,68.73
2019-04-29T18:07:10.356Z,69.02
2019-04-29T18:09:31.375Z,69.17
2019-04-29T18:11:50.508Z,69.62
2019-04-29T18:13:48.018Z,69.85
2019-04-29T18:16:01.689Z,69.88
2019-04-29T18:18:08.665Z,70.21
2019-04-29T18:20:33.036Z,70.49
2019-04-29T18:22:37.961Z,71.23
2019-04-29T18:24:49.472Z,71.24
2019-04-29T18:26:57.986Z,71.95
2019-04-29T18:29:08.020Z,72.14
2019-04-29T18:31:14.719Z,72.25
2019-04-29T18:33:23.474Z,72.67
2019-04-29T18:35:29.856Z,73.28
2019-04-29T18:37:38.411Z,73.44
2019-04-29T18:39:45.645Z,74.29
2019-04-29T18:41:52.313Z,74.33
2019-04-29T18:44:03.006Z,74.54
2019-04-29T18:46:12.948Z,74.74
2019-04-29T18:48:18.951Z,75.09
2019-04-29T18:50:24.441Z,75.52
2019-04-29T18:52:31.205Z,75.56
2019-04-29T18:54:37.945Z,76.15
2019-04-29T18:56:45.833Z,76.60
2019-04-29T18:58:52.599Z,76.62
2019-04-29T19:00:59.411Z,76.90
2019-04-29T19:03:06.698Z,77.11
2019-04-29T19:05:20.801Z,77.53
2019-04-29T19:07:31.843Z,77.54
2019-04-29T19:09:37.841Z,77.88
2019-04-29T19:11:46.195Z,78.20
2019-04-29T19:13:53.145Z,78.29
2019-04-29T19:16:09.497Z,78.48
2019-04-29T19:18:12.443Z,78.95
2019-04-29T19:20:18.652Z,79.49
2019-04-29T19:22:25.926Z,79.56
2019-04-29T19:24:36.389Z,79.95
2019-04-29T19:26:41.257Z,80.00
2019-04-29T19:28:47.996Z,79.91
2019-04-29T19:31:03.091Z,79.92
2019-04-29T19:33:05.857Z,79.65
2019-04-29T19:35:16.813Z,79.43
2019-04-29T19:37:24.950Z,79.38
2019-04-29T19:39:31.889Z,79.06
2019-04-29T19:41:41.098Z,78.71
2019-04-29T19:43:54.839Z,78.52
2019-04-29T19:45:57.461Z,78.18
2019-04-29T19:48:05.974Z,78.30
2019-04-29T19:50:17.959Z,78.03
2019-04-29T19:52:28.620Z,77.77
2019-04-29T19:54:32.021Z,77.42
2019-04-29T19:56:38.791Z,77.16
2019-04-29T19:58:47.436Z,76.57
2019-04-29T20:00:57.323Z,75.67
2019-04-29T20:03:18.258Z,75.05
2019-04-29T20:05:17.471Z,74.89
2019-04-29T20:07:26.874Z,74.60
2019-04-29T20:09:33.721Z,74.68
2019-04-29T20:11:41.547Z,74.56
2019-04-29T20:14:03.821Z,74.22
2019-04-29T20:16:10.091Z,74.18
2019-04-29T20:18:33.866Z,74.32
2019-04-29T20:20:43.503Z,74.59
2019-04-29T20:22:51.369Z,74.69
2019-04-29T20:24:58.569Z,75.31
2019-04-29T20:27:06.332Z,75.28
2019-04-29T20:29:13.211Z,75.06
2019-04-29T20:31:22.364Z,74.77
2019-04-29T20:33:28.568Z,74.88
2019-04-29T20:35:40.446Z,74.93
2019-04-29T20:37:51.953Z,75.25
2019-04-29T20:39:57.290Z,75.27
2019-04-29T20:42:06.413Z,75.23
2019-04-29T20:44:13.401Z,75.10
2019-04-29T20:46:20.358Z,74.98
2019-04-29T20:48:31.520Z,75.33
2019-04-29T20:50:40.872Z,75.18
2019-04-29T20:52:52.135Z,75.10
2019-04-29T20:55:02.523Z,74.97
2019-04-29T20:57:17.574Z,74.72
2019-04-29T20:59:16.991Z,74.60
2019-04-29T21:01:30.114Z,74.51
2019-04-29T21:03:40.537Z,74.47
2019-04-29T21:05:48.139Z,74.45
2019-04-29T21:08:03.101Z,74.24
2019-04-29T21:10:06.720Z,74.18
2019-04-29T21:12:12.183Z,74.29
2019-04-29T21:14:27.192Z,74.35
2019-04-29T21:16:34.699Z,74.52
2019-04-29T21:18:47.440Z,74.75
2019-04-29T21:20:49.827Z,75.22
2019-04-29T21:22:59.804Z,75.03
2019-04-29T21:25:07.961Z,75.04
2019-04-29T21:27:15.891Z,75.05
2019-04-29T21:29:25.563Z,75.12
2019-04-29T21:31:32.951Z,75.20
2019-04-29T21:33:39.719Z,75.41
2019-04-29T21:35:54.483Z,76.18
2019-04-29T21:38:02.142Z,76.05
2019-04-29T21:40:18.801Z,75.96
2019-04-29T21:42:41.085Z,75.54
2019-04-29T21:44:47.866Z,75.54
2019-04-29T21:46:55.273Z,75.60
2019-04-29T21:49:06.829Z,75.54
2019-04-29T21:51:11.067Z,75.51
2019-04-29T21:53:18.986Z,75.87
2019-04-29T21:55:29.237Z,75.58
2019-04-29T21:57:34.014Z,75.91
2019-04-29T21:59:41.413Z,75.68
2019-04-29T22:01:49.150Z,75.45
2019-04-29T22:03:57.750Z,75.34
2019-04-29T22:06:04.287Z,75.28
2019-04-29T22:08:11.021Z,75.33
2019-04-29T22:10:20.036Z,75.41
2019-04-29T22:12:26.518Z,75.38
2019-04-29T22:14:34.875Z,75.36
2019-04-29T22:16:41.677Z,75.35
2019-04-29T22:18:51.890Z,75.43
2019-04-29T22:20:57.713Z,75.50
2019-04-29T22:23:08.420Z,75.94
2019-04-29T22:25:15.855Z,76.22
2019-04-29T22:27:23.122Z,75.53
2019-04-29T22:29:31.972Z,75.65
2019-04-29T22:31:38.502Z,75.94
2019-04-29T22:33:45.803Z,75.95
2019-04-29T22:35:55.435Z,76.08
2019-04-29T22:38:02.455Z,76.12
2019-04-29T22:40:09.733Z,76.33
2019-04-29T22:42:30.065Z,76.28
2019-04-29T22:44:36.842Z,76.36
2019-04-29T22:46:44.760Z,76.63
2019-04-29T22:48:52.031Z,76.60
2019-04-29T22:50:58.735Z,76.71
2019-04-29T22:53:08.727Z,76.75
2019-04-29T22:55:15.492Z,76.80
2019-04-29T22:57:23.046Z,76.84
2019-04-29T22:59:30.573Z,77.12
2019-04-29T23:01:42.072Z,76.96
2019-04-29T23:03:47.135Z,77.08
2019-04-29T23:05:55.721Z,76.93
2019-04-29T23:08:02.437Z,76.84
2019-04-29T23:10:09.793Z,76.85
2019-04-29T23:12:18.526Z,76.78
2019-04-29T23:14:25.270Z,76.89
2019-04-29T23:16:35.700Z,76.93
2019-04-29T23:18:43.327Z,77.06
2019-04-29T23:20:59.531Z,77.25
2019-04-29T23:23:11.888Z,77.51
2019-04-29T23:25:26.653Z,77.62
2019-04-29T23:27:31.337Z,77.81
2019-04-29T23:29:43.140Z,78.12
2019-04-29T23:31:46.514Z,78.24
2019-04-29T23:33:54.219Z,78.19
2019-04-29T23:36:01.811Z,78.31
2019-04-29T23:38:09.444Z,78.28
2019-04-29T23:40:16.507Z,78.61
2019-04-29T23:42:23.350Z,78.88
2019-04-29T23:44:30.014Z,79.06
2019-04-29T23:46:36.745Z,78.96
2019-04-29T23:48:46.440Z,79.01
2019-04-29T23:50:54.680Z,79.10
2019-04-29T23:53:00.345Z,79.52
2019-04-29T23:55:08.835Z,79.50
2019-04-29T23:57:23.719Z,79.55
2019-04-29T23:59:29.982Z,79.36
